sensor_id;sensor_type;location;lat;lon;timestamp;temperature;humidity
9885;DHT22;4981;50.966;4.842;2022-10-16T00:01:06;13.70;1.00
9885;DHT22;4981;50.966;4.842;2022-10-16T00:03:33;13.70;1.00
9885;DHT22;4981;50.966;4.842;2022-10-16T00:06:02;13.70;1.00
9885;DHT22;4981;50.966;4.842;2022-10-16T00:08:30;13.60;1.00
9885;DHT22;4981;50.966;4.842;2022-10-16T00:11:01;13.60;1.00
9885;DHT22;4981;50.966;4.842;2022-10-16T00:13:29;13.70;1.00
9885;DHT22;4981;50.966;4.842;2022-10-16T00:15:58;13.70;1.00
9885;DHT22;4981;50.966;4.842;2022-10-16T00:18:26;13.70;1.00
9885;DHT22;4981;50.966;4.842;2022-10-16T00:20:53;13.80;1.00
9885;DHT22;4981;50.966;4.842;2022-10-16T00:23:22;13.70;1.00
9885;DHT22;4981;50.966;4.842;2022-10-16T00:25:56;13.70;1.00
9885;DHT22;4981;50.966;4.842;2022-10-16T00:28:24;13.70;1.00
9885;DHT22;4981;50.966;4.842;2022-10-16T00:30:52;13.60;1.00
9885;DHT22;4981;50.966;4.842;2022-10-16T00:33:19;13.50;1.00
9885;DHT22;4981;50.966;4.842;2022-10-16T00:35:47;13.60;1.00
9885;DHT22;4981;50.966;4.842;2022-10-16T00:38:14;13.50;1.00
9885;DHT22;4981;50.966;4.842;2022-10-16T00:40:42;13.30;1.00
9885;DHT22;4981;50.966;4.842;2022-10-16T00:43:13;13.50;1.00
9885;DHT22;4981;50.966;4.842;2022-10-16T00:45:41;12.90;1.00
9885;DHT22;4981;50.966;4.842;2022-10-16T00:48:12;13.50;1.00
9885;DHT22;4981;50.966;4.842;2022-10-16T00:50:40;13.40;1.00
9885;DHT22;4981;50.966;4.842;2022-10-16T00:53:10;13.40;1.00
9885;DHT22;4981;50.966;4.842;2022-10-16T00:55:39;13.30;1.00
9885;DHT22;4981;50.966;4.842;2022-10-16T00:58:07;13.30;1.00
9885;DHT22;4981;50.966;4.842;2022-10-16T01:00:35;13.40;1.00
9885;DHT22;4981;50.966;4.842;2022-10-16T01:03:03;13.30;1.00
9885;DHT22;4981;50.966;4.842;2022-10-16T01:05:35;13.30;1.00
9885;DHT22;4981;50.966;4.842;2022-10-16T01:08:09;13.30;1.00
9885;DHT22;4981;50.966;4.842;2022-10-16T01:10:43;13.30;1.00
9885;DHT22;4981;50.966;4.842;2022-10-16T01:13:17;13.30;1.00
9885;DHT22;4981;50.966;4.842;2022-10-16T01:15:48;13.30;1.00
9885;DHT22;4981;50.966;4.842;2022-10-16T01:18:23;13.30;1.00
9885;DHT22;4981;50.966;4.842;2022-10-16T01:20:57;13.20;1.00
9885;DHT22;4981;50.966;4.842;2022-10-16T01:23:37;13.30;1.00
9885;DHT22;4981;50.966;4.842;2022-10-16T01:26:30;13.20;1.00
9885;DHT22;4981;50.966;4.842;2022-10-16T01:29:04;13.30;1.00
9885;DHT22;4981;50.966;4.842;2022-10-16T01:31:37;13.20;1.00
9885;DHT22;4981;50.966;4.842;2022-10-16T01:34:10;12.60;1.00
9885;DHT22;4981;50.966;4.842;2022-10-16T01:36:45;13.20;1.00
9885;DHT22;4981;50.966;4.842;2022-10-16T01:39:14;13.20;1.00
9885;DHT22;4981;50.966;4.842;2022-10-16T01:41:44;13.50;1.00
9885;DHT22;4981;50.966;4.842;2022-10-16T01:44:18;13.30;1.00
9885;DHT22;4981;50.966;4.842;2022-10-16T01:46:47;13.30;1.00
9885;DHT22;4981;50.966;4.842;2022-10-16T01:49:17;13.30;1.00
9885;DHT22;4981;50.966;4.842;2022-10-16T01:51:46;13.30;1.00
9885;DHT22;4981;50.966;4.842;2022-10-16T01:54:16;13.30;1.00
9885;DHT22;4981;50.966;4.842;2022-10-16T01:56:45;13.00;1.00
9885;DHT22;4981;50.966;4.842;2022-10-16T01:59:17;13.20;1.00
9885;DHT22;4981;50.966;4.842;2022-10-16T02:01:48;13.20;1.00
9885;DHT22;4981;50.966;4.842;2022-10-16T02:04:21;13.20;1.00
9885;DHT22;4981;50.966;4.842;2022-10-16T02:06:48;13.40;1.00
9885;DHT22;4981;50.966;4.842;2022-10-16T02:09:16;13.30;1.00
9885;DHT22;4981;50.966;4.842;2022-10-16T02:11:43;13.20;1.00
9885;DHT22;4981;50.966;4.842;2022-10-16T02:14:10;13.20;1.00
9885;DHT22;4981;50.966;4.842;2022-10-16T02:16:42;13.10;1.00
9885;DHT22;4981;50.966;4.842;2022-10-16T02:19:10;13.40;1.00
9885;DHT22;4981;50.966;4.842;2022-10-16T02:21:43;13.20;1.00
9885;DHT22;4981;50.966;4.842;2022-10-16T02:24:16;13.20;1.00
9885;DHT22;4981;50.966;4.842;2022-10-16T02:26:49;13.10;1.00
9885;DHT22;4981;50.966;4.842;2022-10-16T02:29:23;13.20;1.00
9885;DHT22;4981;50.966;4.842;2022-10-16T02:31:55;13.00;1.00
9885;DHT22;4981;50.966;4.842;2022-10-16T02:34:25;13.10;1.00
9885;DHT22;4981;50.966;4.842;2022-10-16T02:36:53;13.10;1.00
9885;DHT22;4981;50.966;4.842;2022-10-16T02:39:22;13.10;1.00
9885;DHT22;4981;50.966;4.842;2022-10-16T02:41:49;13.40;1.00
9885;DHT22;4981;50.966;4.842;2022-10-16T02:44:16;13.10;1.00
9885;DHT22;4981;50.966;4.842;2022-10-16T02:46:44;13.00;1.00
9885;DHT22;4981;50.966;4.842;2022-10-16T02:49:12;13.00;1.00
9885;DHT22;4981;50.966;4.842;2022-10-16T02:51:39;13.10;1.00
9885;DHT22;4981;50.966;4.842;2022-10-16T02:54:06;13.00;1.00
9885;DHT22;4981;50.966;4.842;2022-10-16T02:56:33;13.00;1.00
9885;DHT22;4981;50.966;4.842;2022-10-16T02:59:01;13.00;1.00
9885;DHT22;4981;50.966;4.842;2022-10-16T03:01:28;13.20;1.00
9885;DHT22;4981;50.966;4.842;2022-10-16T03:03:55;12.90;1.00
9885;DHT22;4981;50.966;4.842;2022-10-16T03:06:23;12.90;1.00
9885;DHT22;4981;50.966;4.842;2022-10-16T03:08:50;12.90;1.00
9885;DHT22;4981;50.966;4.842;2022-10-16T03:11:17;12.90;1.00
9885;DHT22;4981;50.966;4.842;2022-10-16T03:13:44;12.90;1.00
9885;DHT22;4981;50.966;4.842;2022-10-16T03:16:11;12.90;1.00
9885;DHT22;4981;50.966;4.842;2022-10-16T03:18:38;12.90;1.00
9885;DHT22;4981;50.966;4.842;2022-10-16T03:21:05;12.90;1.00
9885;DHT22;4981;50.966;4.842;2022-10-16T03:23:34;12.90;1.00
9885;DHT22;4981;50.966;4.842;2022-10-16T03:26:01;12.90;1.00
9885;DHT22;4981;50.966;4.842;2022-10-16T03:28:29;11.80;1.00
9885;DHT22;4981;50.966;4.842;2022-10-16T03:30:56;12.90;1.00
9885;DHT22;4981;50.966;4.842;2022-10-16T03:33:23;12.90;1.00
9885;DHT22;4981;50.966;4.842;2022-10-16T03:35:54;12.90;1.00
9885;DHT22;4981;50.966;4.842;2022-10-16T03:38:21;13.00;1.00
9885;DHT22;4981;50.966;4.842;2022-10-16T03:40:50;12.90;1.00
9885;DHT22;4981;50.966;4.842;2022-10-16T03:43:16;13.10;1.00
9885;DHT22;4981;50.966;4.842;2022-10-16T03:45:44;12.90;1.00
9885;DHT22;4981;50.966;4.842;2022-10-16T03:48:11;12.90;1.00
9885;DHT22;4981;50.966;4.842;2022-10-16T03:50:38;12.90;1.00
9885;DHT22;4981;50.966;4.842;2022-10-16T03:53:06;13.00;1.00
9885;DHT22;4981;50.966;4.842;2022-10-16T03:55:34;13.00;1.00
9885;DHT22;4981;50.966;4.842;2022-10-16T03:58:02;13.00;1.00
9885;DHT22;4981;50.966;4.842;2022-10-16T04:00:29;12.90;1.00
9885;DHT22;4981;50.966;4.842;2022-10-16T04:02:56;13.10;1.00
9885;DHT22;4981;50.966;4.842;2022-10-16T04:05:23;12.90;1.00
9885;DHT22;4981;50.966;4.842;2022-10-16T04:07:50;12.90;1.00
9885;DHT22;4981;50.966;4.842;2022-10-16T04:10:17;12.90;1.00
9885;DHT22;4981;50.966;4.842;2022-10-16T04:12:45;12.80;1.00
9885;DHT22;4981;50.966;4.842;2022-10-16T04:15:13;12.90;1.00
9885;DHT22;4981;50.966;4.842;2022-10-16T04:17:40;12.90;1.00
9885;DHT22;4981;50.966;4.842;2022-10-16T04:20:08;13.00;1.00
9885;DHT22;4981;50.966;4.842;2022-10-16T04:22:35;12.90;1.00
9885;DHT22;4981;50.966;4.842;2022-10-16T04:25:03;12.90;1.00
9885;DHT22;4981;50.966;4.842;2022-10-16T04:27:31;12.90;1.00
9885;DHT22;4981;50.966;4.842;2022-10-16T04:29:58;11.90;1.00
9885;DHT22;4981;50.966;4.842;2022-10-16T04:32:26;12.90;1.00
9885;DHT22;4981;50.966;4.842;2022-10-16T04:34:54;12.90;1.00
9885;DHT22;4981;50.966;4.842;2022-10-16T04:37:23;12.90;1.00
9885;DHT22;4981;50.966;4.842;2022-10-16T04:39:51;12.90;1.00
9885;DHT22;4981;50.966;4.842;2022-10-16T04:42:18;12.90;1.00
9885;DHT22;4981;50.966;4.842;2022-10-16T04:44:45;13.00;1.00
9885;DHT22;4981;50.966;4.842;2022-10-16T04:47:13;12.90;1.00
9885;DHT22;4981;50.966;4.842;2022-10-16T04:49:41;12.90;1.00
9885;DHT22;4981;50.966;4.842;2022-10-16T04:52:08;12.90;1.00
9885;DHT22;4981;50.966;4.842;2022-10-16T04:54:36;12.80;1.00
9885;DHT22;4981;50.966;4.842;2022-10-16T04:57:03;12.80;1.00
9885;DHT22;4981;50.966;4.842;2022-10-16T04:59:30;12.80;1.00
9885;DHT22;4981;50.966;4.842;2022-10-16T05:01:57;12.90;1.00
9885;DHT22;4981;50.966;4.842;2022-10-16T05:04:24;12.80;1.00
9885;DHT22;4981;50.966;4.842;2022-10-16T05:06:53;12.90;1.00
9885;DHT22;4981;50.966;4.842;2022-10-16T05:09:20;12.80;1.00
9885;DHT22;4981;50.966;4.842;2022-10-16T05:11:47;12.70;1.00
9885;DHT22;4981;50.966;4.842;2022-10-16T05:14:14;12.70;1.00
9885;DHT22;4981;50.966;4.842;2022-10-16T05:16:41;12.80;1.00
9885;DHT22;4981;50.966;4.842;2022-10-16T05:19:09;12.80;1.00
9885;DHT22;4981;50.966;4.842;2022-10-16T05:21:36;12.80;1.00
9885;DHT22;4981;50.966;4.842;2022-10-16T05:24:05;12.70;1.00
9885;DHT22;4981;50.966;4.842;2022-10-16T05:26:32;12.70;1.00
9885;DHT22;4981;50.966;4.842;2022-10-16T05:28:59;12.70;1.00
9885;DHT22;4981;50.966;4.842;2022-10-16T05:31:26;12.60;1.00
9885;DHT22;4981;50.966;4.842;2022-10-16T05:33:58;12.60;1.00
9885;DHT22;4981;50.966;4.842;2022-10-16T05:36:25;12.30;1.00
9885;DHT22;4981;50.966;4.842;2022-10-16T05:38:52;12.60;1.00
9885;DHT22;4981;50.966;4.842;2022-10-16T05:41:21;12.60;1.00
9885;DHT22;4981;50.966;4.842;2022-10-16T05:43:51;12.60;1.00
9885;DHT22;4981;50.966;4.842;2022-10-16T05:46:18;12.70;1.00
9885;DHT22;4981;50.966;4.842;2022-10-16T05:48:46;12.60;1.00
9885;DHT22;4981;50.966;4.842;2022-10-16T05:51:14;12.60;1.00
9885;DHT22;4981;50.966;4.842;2022-10-16T05:53:41;12.50;1.00
9885;DHT22;4981;50.966;4.842;2022-10-16T05:56:10;12.60;1.00
9885;DHT22;4981;50.966;4.842;2022-10-16T05:58:39;12.60;1.00
9885;DHT22;4981;50.966;4.842;2022-10-16T06:01:10;12.80;1.00
9885;DHT22;4981;50.966;4.842;2022-10-16T06:03:37;12.80;1.00
9885;DHT22;4981;50.966;4.842;2022-10-16T06:06:08;12.20;1.00
9885;DHT22;4981;50.966;4.842;2022-10-16T06:08:36;12.50;1.00
9885;DHT22;4981;50.966;4.842;2022-10-16T06:11:05;11.90;1.00
9885;DHT22;4981;50.966;4.842;2022-10-16T06:13:32;12.50;1.00
9885;DHT22;4981;50.966;4.842;2022-10-16T06:16:01;12.60;1.00
9885;DHT22;4981;50.966;4.842;2022-10-16T06:18:28;12.60;1.00
9885;DHT22;4981;50.966;4.842;2022-10-16T06:20:56;12.50;1.00
9885;DHT22;4981;50.966;4.842;2022-10-16T06:23:24;12.50;1.00
9885;DHT22;4981;50.966;4.842;2022-10-16T06:25:51;12.30;1.00
9885;DHT22;4981;50.966;4.842;2022-10-16T06:28:18;12.50;1.00
9885;DHT22;4981;50.966;4.842;2022-10-16T06:30:46;12.50;1.00
9885;DHT22;4981;50.966;4.842;2022-10-16T06:33:14;12.50;1.00
9885;DHT22;4981;50.966;4.842;2022-10-16T06:35:41;12.50;1.00
9885;DHT22;4981;50.966;4.842;2022-10-16T06:38:09;12.50;1.00
9885;DHT22;4981;50.966;4.842;2022-10-16T06:40:36;12.50;1.00
9885;DHT22;4981;50.966;4.842;2022-10-16T06:43:03;12.50;1.00
9885;DHT22;4981;50.966;4.842;2022-10-16T06:45:30;12.40;1.00
9885;DHT22;4981;50.966;4.842;2022-10-16T06:47:57;12.60;1.00
9885;DHT22;4981;50.966;4.842;2022-10-16T06:50:26;13.10;1.00
9885;DHT22;4981;50.966;4.842;2022-10-16T06:52:52;12.60;1.00
9885;DHT22;4981;50.966;4.842;2022-10-16T06:55:20;12.60;1.00
9885;DHT22;4981;50.966;4.842;2022-10-16T06:57:47;12.70;1.00
9885;DHT22;4981;50.966;4.842;2022-10-16T07:00:15;13.90;1.00
9885;DHT22;4981;50.966;4.842;2022-10-16T07:02:42;12.90;1.00
9885;DHT22;4981;50.966;4.842;2022-10-16T07:05:09;12.90;1.00
9885;DHT22;4981;50.966;4.842;2022-10-16T07:07:38;13.00;1.00
9885;DHT22;4981;50.966;4.842;2022-10-16T07:10:07;13.00;1.00
9885;DHT22;4981;50.966;4.842;2022-10-16T07:12:34;13.10;1.00
9885;DHT22;4981;50.966;4.842;2022-10-16T07:15:01;13.10;1.00
9885;DHT22;4981;50.966;4.842;2022-10-16T07:17:28;13.20;1.00
9885;DHT22;4981;50.966;4.842;2022-10-16T07:19:55;13.30;1.00
9885;DHT22;4981;50.966;4.842;2022-10-16T07:22:22;12.90;1.00
9885;DHT22;4981;50.966;4.842;2022-10-16T07:24:50;13.40;1.00
9885;DHT22;4981;50.966;4.842;2022-10-16T07:27:18;13.50;1.00
9885;DHT22;4981;50.966;4.842;2022-10-16T07:29:47;13.50;1.00
9885;DHT22;4981;50.966;4.842;2022-10-16T07:32:14;13.50;1.00
9885;DHT22;4981;50.966;4.842;2022-10-16T07:34:42;13.60;1.00
9885;DHT22;4981;50.966;4.842;2022-10-16T07:37:09;13.60;1.00
9885;DHT22;4981;50.966;4.842;2022-10-16T07:39:36;13.60;1.00
9885;DHT22;4981;50.966;4.842;2022-10-16T07:42:04;13.70;1.00
9885;DHT22;4981;50.966;4.842;2022-10-16T07:44:33;13.80;1.00
9885;DHT22;4981;50.966;4.842;2022-10-16T07:47:00;13.20;1.00
9885;DHT22;4981;50.966;4.842;2022-10-16T07:49:28;13.90;1.00
9885;DHT22;4981;50.966;4.842;2022-10-16T07:51:55;14.30;1.00
9885;DHT22;4981;50.966;4.842;2022-10-16T07:54:22;13.90;1.00
9885;DHT22;4981;50.966;4.842;2022-10-16T07:56:49;14.00;1.00
9885;DHT22;4981;50.966;4.842;2022-10-16T07:59:18;13.80;1.00
9885;DHT22;4981;50.966;4.842;2022-10-16T08:01:45;14.10;1.00
9885;DHT22;4981;50.966;4.842;2022-10-16T08:04:12;14.30;1.00
9885;DHT22;4981;50.966;4.842;2022-10-16T08:06:40;14.20;1.00
9885;DHT22;4981;50.966;4.842;2022-10-16T08:09:08;14.30;1.00
9885;DHT22;4981;50.966;4.842;2022-10-16T08:11:35;14.40;1.00
9885;DHT22;4981;50.966;4.842;2022-10-16T08:14:02;14.30;1.00
9885;DHT22;4981;50.966;4.842;2022-10-16T08:16:30;14.40;1.00
9885;DHT22;4981;50.966;4.842;2022-10-16T08:18:57;14.50;1.00
9885;DHT22;4981;50.966;4.842;2022-10-16T08:21:24;14.50;1.00
9885;DHT22;4981;50.966;4.842;2022-10-16T08:23:53;14.60;1.00
9885;DHT22;4981;50.966;4.842;2022-10-16T08:26:20;14.50;1.00
9885;DHT22;4981;50.966;4.842;2022-10-16T08:28:49;14.50;1.00
9885;DHT22;4981;50.966;4.842;2022-10-16T08:31:17;14.50;1.00
9885;DHT22;4981;50.966;4.842;2022-10-16T08:33:46;14.60;1.00
9885;DHT22;4981;50.966;4.842;2022-10-16T08:36:14;14.80;1.00
9885;DHT22;4981;50.966;4.842;2022-10-16T08:38:41;14.80;1.00
9885;DHT22;4981;50.966;4.842;2022-10-16T08:41:22;14.80;1.00
9885;DHT22;4981;50.966;4.842;2022-10-16T08:44:05;14.80;1.00
9885;DHT22;4981;50.966;4.842;2022-10-16T08:46:42;15.10;1.00
9885;DHT22;4981;50.966;4.842;2022-10-16T08:49:15;14.80;1.00
9885;DHT22;4981;50.966;4.842;2022-10-16T08:51:42;14.90;1.00
9885;DHT22;4981;50.966;4.842;2022-10-16T08:54:23;14.70;1.00
9885;DHT22;4981;50.966;4.842;2022-10-16T08:56:54;15.00;1.00
9885;DHT22;4981;50.966;4.842;2022-10-16T08:59:22;15.00;1.00
9885;DHT22;4981;50.966;4.842;2022-10-16T09:01:51;15.10;1.00
9885;DHT22;4981;50.966;4.842;2022-10-16T09:04:49;15.10;1.00
9885;DHT22;4981;50.966;4.842;2022-10-16T09:07:26;15.10;1.00
9885;DHT22;4981;50.966;4.842;2022-10-16T09:10:09;15.20;1.00
9885;DHT22;4981;50.966;4.842;2022-10-16T09:12:42;15.30;1.00
9885;DHT22;4981;50.966;4.842;2022-10-16T09:15:17;15.30;1.00
9885;DHT22;4981;50.966;4.842;2022-10-16T09:17:55;15.20;1.00
9885;DHT22;4981;50.966;4.842;2022-10-16T09:20:38;15.50;1.00
9885;DHT22;4981;50.966;4.842;2022-10-16T09:23:15;15.40;1.00
9885;DHT22;4981;50.966;4.842;2022-10-16T09:25:45;15.60;1.00
9885;DHT22;4981;50.966;4.842;2022-10-16T09:28:15;14.80;1.00
9885;DHT22;4981;50.966;4.842;2022-10-16T09:30:43;15.50;1.00
9885;DHT22;4981;50.966;4.842;2022-10-16T09:33:12;15.80;1.00
9885;DHT22;4981;50.966;4.842;2022-10-16T09:35:43;15.80;1.00
9885;DHT22;4981;50.966;4.842;2022-10-16T09:38:22;15.70;1.00
9885;DHT22;4981;50.966;4.842;2022-10-16T09:40:50;15.80;1.00
9885;DHT22;4981;50.966;4.842;2022-10-16T09:43:23;15.90;1.00
9885;DHT22;4981;50.966;4.842;2022-10-16T09:45:55;16.00;1.00
9885;DHT22;4981;50.966;4.842;2022-10-16T09:48:26;15.90;1.00
9885;DHT22;4981;50.966;4.842;2022-10-16T09:50:59;15.90;1.00
9885;DHT22;4981;50.966;4.842;2022-10-16T09:53:41;16.00;1.00
9885;DHT22;4981;50.966;4.842;2022-10-16T09:56:10;16.00;1.00
9885;DHT22;4981;50.966;4.842;2022-10-16T09:58:42;15.90;1.00
9885;DHT22;4981;50.966;4.842;2022-10-16T10:01:13;16.10;1.00
9885;DHT22;4981;50.966;4.842;2022-10-16T10:03:43;16.00;1.00
9885;DHT22;4981;50.966;4.842;2022-10-16T10:06:22;16.40;1.00
9885;DHT22;4981;50.966;4.842;2022-10-16T10:08:58;16.50;1.00
9885;DHT22;4981;50.966;4.842;2022-10-16T10:11:44;16.50;1.00
9885;DHT22;4981;50.966;4.842;2022-10-16T10:14:20;16.40;1.00
9885;DHT22;4981;50.966;4.842;2022-10-16T10:16:49;16.50;1.00
9885;DHT22;4981;50.966;4.842;2022-10-16T10:19:19;16.50;1.00
9885;DHT22;4981;50.966;4.842;2022-10-16T10:21:49;16.50;1.00
9885;DHT22;4981;50.966;4.842;2022-10-16T10:24:18;16.50;1.00
9885;DHT22;4981;50.966;4.842;2022-10-16T10:26:51;17.10;1.00
9885;DHT22;4981;50.966;4.842;2022-10-16T10:29:35;16.80;1.00
9885;DHT22;4981;50.966;4.842;2022-10-16T10:32:15;16.90;1.00
9885;DHT22;4981;50.966;4.842;2022-10-16T10:34:59;16.60;1.00
9885;DHT22;4981;50.966;4.842;2022-10-16T10:37:41;16.10;1.00
9885;DHT22;4981;50.966;4.842;2022-10-16T10:40:21;16.70;1.00
9885;DHT22;4981;50.966;4.842;2022-10-16T10:42:57;16.80;1.00
9885;DHT22;4981;50.966;4.842;2022-10-16T10:45:27;16.90;1.00
9885;DHT22;4981;50.966;4.842;2022-10-16T10:48:21;17.00;1.00
9885;DHT22;4981;50.966;4.842;2022-10-16T10:50:52;17.00;1.00
9885;DHT22;4981;50.966;4.842;2022-10-16T10:53:38;17.00;1.00
9885;DHT22;4981;50.966;4.842;2022-10-16T10:56:16;17.10;1.00
9885;DHT22;4981;50.966;4.842;2022-10-16T10:58:57;17.10;1.00
9885;DHT22;4981;50.966;4.842;2022-10-16T11:01:35;17.00;1.00
9885;DHT22;4981;50.966;4.842;2022-10-16T11:04:23;17.20;1.00
9885;DHT22;4981;50.966;4.842;2022-10-16T11:06:57;17.40;1.00
9885;DHT22;4981;50.966;4.842;2022-10-16T11:09:33;18.00;1.00
9885;DHT22;4981;50.966;4.842;2022-10-16T11:12:06;17.80;1.00
9885;DHT22;4981;50.966;4.842;2022-10-16T11:14:36;18.30;1.00
9885;DHT22;4981;50.966;4.842;2022-10-16T11:17:10;18.60;1.00
9885;DHT22;4981;50.966;4.842;2022-10-16T11:19:40;18.30;1.00
9885;DHT22;4981;50.966;4.842;2022-10-16T11:22:13;18.30;1.00
9885;DHT22;4981;50.966;4.842;2022-10-16T11:24:48;19.40;1.00
9885;DHT22;4981;50.966;4.842;2022-10-16T11:27:21;19.10;1.00
9885;DHT22;4981;50.966;4.842;2022-10-16T11:29:53;19.10;1.00
9885;DHT22;4981;50.966;4.842;2022-10-16T11:32:25;18.80;1.00
9885;DHT22;4981;50.966;4.842;2022-10-16T11:34:59;18.90;1.00
9885;DHT22;4981;50.966;4.842;2022-10-16T11:37:31;19.50;1.00
9885;DHT22;4981;50.966;4.842;2022-10-16T11:40:11;20.10;1.00
9885;DHT22;4981;50.966;4.842;2022-10-16T11:42:48;20.30;1.00
9885;DHT22;4981;50.966;4.842;2022-10-16T11:45:26;20.50;1.00
9885;DHT22;4981;50.966;4.842;2022-10-16T11:48:02;20.50;1.00
9885;DHT22;4981;50.966;4.842;2022-10-16T11:50:35;19.90;1.00
9885;DHT22;4981;50.966;4.842;2022-10-16T11:53:13;19.60;1.00
9885;DHT22;4981;50.966;4.842;2022-10-16T11:55:45;20.20;1.00
9885;DHT22;4981;50.966;4.842;2022-10-16T11:58:21;20.00;1.00
9885;DHT22;4981;50.966;4.842;2022-10-16T12:00:57;20.50;1.00
9885;DHT22;4981;50.966;4.842;2022-10-16T12:03:29;20.70;1.00
9885;DHT22;4981;50.966;4.842;2022-10-16T12:06:16;19.80;1.00
9885;DHT22;4981;50.966;4.842;2022-10-16T12:08:46;19.60;1.00
9885;DHT22;4981;50.966;4.842;2022-10-16T12:11:31;19.40;1.00
9885;DHT22;4981;50.966;4.842;2022-10-16T12:14:21;19.30;1.00
9885;DHT22;4981;50.966;4.842;2022-10-16T12:16:54;19.30;1.00
9885;DHT22;4981;50.966;4.842;2022-10-16T12:19:23;19.20;1.00
9885;DHT22;4981;50.966;4.842;2022-10-16T12:21:52;19.60;1.00
9885;DHT22;4981;50.966;4.842;2022-10-16T12:24:27;19.00;1.00
9885;DHT22;4981;50.966;4.842;2022-10-16T12:26:58;19.00;1.00
9885;DHT22;4981;50.966;4.842;2022-10-16T12:29:32;19.00;1.00
9885;DHT22;4981;50.966;4.842;2022-10-16T12:32:02;19.00;1.00
9885;DHT22;4981;50.966;4.842;2022-10-16T12:34:33;19.20;1.00
9885;DHT22;4981;50.966;4.842;2022-10-16T12:37:14;19.00;1.00
9885;DHT22;4981;50.966;4.842;2022-10-16T12:39:42;19.30;1.00
9885;DHT22;4981;50.966;4.842;2022-10-16T12:42:35;19.50;1.00
9885;DHT22;4981;50.966;4.842;2022-10-16T12:45:22;19.40;1.00
9885;DHT22;4981;50.966;4.842;2022-10-16T12:47:52;19.40;1.00
9885;DHT22;4981;50.966;4.842;2022-10-16T12:50:35;19.30;1.00
9885;DHT22;4981;50.966;4.842;2022-10-16T12:53:04;19.10;1.00
9885;DHT22;4981;50.966;4.842;2022-10-16T12:55:41;19.00;1.00
9885;DHT22;4981;50.966;4.842;2022-10-16T12:58:25;19.30;1.00
9885;DHT22;4981;50.966;4.842;2022-10-16T13:00:57;19.50;1.00
9885;DHT22;4981;50.966;4.842;2022-10-16T13:03:47;19.30;1.00
9885;DHT22;4981;50.966;4.842;2022-10-16T13:06:27;19.10;1.00
9885;DHT22;4981;50.966;4.842;2022-10-16T13:09:10;19.10;1.00
9885;DHT22;4981;50.966;4.842;2022-10-16T13:12:11;19.00;1.00
9885;DHT22;4981;50.966;4.842;2022-10-16T13:15:01;18.70;1.00
9885;DHT22;4981;50.966;4.842;2022-10-16T13:17:37;18.20;1.00
9885;DHT22;4981;50.966;4.842;2022-10-16T13:20:16;18.90;1.00
9885;DHT22;4981;50.966;4.842;2022-10-16T13:22:53;18.90;1.00
9885;DHT22;4981;50.966;4.842;2022-10-16T13:25:30;19.00;1.00
9885;DHT22;4981;50.966;4.842;2022-10-16T13:28:02;19.00;1.00
9885;DHT22;4981;50.966;4.842;2022-10-16T13:30:33;19.00;1.00
9885;DHT22;4981;50.966;4.842;2022-10-16T13:33:04;19.20;1.00
9885;DHT22;4981;50.966;4.842;2022-10-16T13:35:35;19.10;1.00
9885;DHT22;4981;50.966;4.842;2022-10-16T13:38:12;19.00;1.00
9885;DHT22;4981;50.966;4.842;2022-10-16T13:40:49;19.10;1.00
9885;DHT22;4981;50.966;4.842;2022-10-16T13:43:17;19.20;1.00
9885;DHT22;4981;50.966;4.842;2022-10-16T13:45:58;19.10;1.00
9885;DHT22;4981;50.966;4.842;2022-10-16T13:48:26;19.10;1.00
9885;DHT22;4981;50.966;4.842;2022-10-16T13:51:03;19.10;1.00
9885;DHT22;4981;50.966;4.842;2022-10-16T13:53:33;19.30;1.00
9885;DHT22;4981;50.966;4.842;2022-10-16T13:56:04;19.30;1.00
9885;DHT22;4981;50.966;4.842;2022-10-16T13:58:32;19.40;1.00
9885;DHT22;4981;50.966;4.842;2022-10-16T14:01:03;19.30;1.00
9885;DHT22;4981;50.966;4.842;2022-10-16T14:03:32;19.30;1.00
9885;DHT22;4981;50.966;4.842;2022-10-16T14:06:02;19.10;1.00
9885;DHT22;4981;50.966;4.842;2022-10-16T14:08:30;19.10;1.00
9885;DHT22;4981;50.966;4.842;2022-10-16T14:10:59;19.40;1.00
9885;DHT22;4981;50.966;4.842;2022-10-16T14:13:31;19.00;1.00
9885;DHT22;4981;50.966;4.842;2022-10-16T14:16:05;19.00;1.00
9885;DHT22;4981;50.966;4.842;2022-10-16T14:18:33;18.90;1.00
9885;DHT22;4981;50.966;4.842;2022-10-16T14:21:04;18.90;1.00
9885;DHT22;4981;50.966;4.842;2022-10-16T14:23:36;18.90;1.00
9885;DHT22;4981;50.966;4.842;2022-10-16T14:26:15;18.90;1.00
9885;DHT22;4981;50.966;4.842;2022-10-16T14:28:43;18.90;1.00
9885;DHT22;4981;50.966;4.842;2022-10-16T14:31:36;18.90;1.00
9885;DHT22;4981;50.966;4.842;2022-10-16T14:34:22;18.80;1.00
9885;DHT22;4981;50.966;4.842;2022-10-16T14:36:50;18.60;1.00
9885;DHT22;4981;50.966;4.842;2022-10-16T14:39:20;18.60;1.00
9885;DHT22;4981;50.966;4.842;2022-10-16T14:41:49;18.50;1.00
9885;DHT22;4981;50.966;4.842;2022-10-16T14:44:18;18.50;1.00
9885;DHT22;4981;50.966;4.842;2022-10-16T14:46:47;18.90;1.00
9885;DHT22;4981;50.966;4.842;2022-10-16T14:49:17;18.70;1.00
9885;DHT22;4981;50.966;4.842;2022-10-16T14:51:46;18.50;1.00
9885;DHT22;4981;50.966;4.842;2022-10-16T14:54:14;18.50;1.00
9885;DHT22;4981;50.966;4.842;2022-10-16T14:56:46;18.50;1.00
9885;DHT22;4981;50.966;4.842;2022-10-16T14:59:17;18.60;1.00
9885;DHT22;4981;50.966;4.842;2022-10-16T15:01:47;18.80;1.00
9885;DHT22;4981;50.966;4.842;2022-10-16T15:04:15;18.60;1.00
9885;DHT22;4981;50.966;4.842;2022-10-16T15:06:43;18.50;1.00
9885;DHT22;4981;50.966;4.842;2022-10-16T15:09:10;18.80;1.00
9885;DHT22;4981;50.966;4.842;2022-10-16T15:11:37;18.50;1.00
9885;DHT22;4981;50.966;4.842;2022-10-16T15:14:04;18.50;1.00
9885;DHT22;4981;50.966;4.842;2022-10-16T15:16:32;18.50;1.00
9885;DHT22;4981;50.966;4.842;2022-10-16T15:19:01;18.40;1.00
9885;DHT22;4981;50.966;4.842;2022-10-16T15:21:30;17.90;1.00
9885;DHT22;4981;50.966;4.842;2022-10-16T15:23:58;18.30;1.00
9885;DHT22;4981;50.966;4.842;2022-10-16T15:26:27;18.10;1.00
9885;DHT22;4981;50.966;4.842;2022-10-16T15:28:54;18.20;1.00
9885;DHT22;4981;50.966;4.842;2022-10-16T15:31:21;18.20;1.00
9885;DHT22;4981;50.966;4.842;2022-10-16T15:33:49;18.10;1.00
9885;DHT22;4981;50.966;4.842;2022-10-16T15:36:27;18.00;1.00
9885;DHT22;4981;50.966;4.842;2022-10-16T15:38:55;18.00;1.00
9885;DHT22;4981;50.966;4.842;2022-10-16T15:41:23;18.00;1.00
9885;DHT22;4981;50.966;4.842;2022-10-16T15:43:51;17.90;1.00
9885;DHT22;4981;50.966;4.842;2022-10-16T15:46:20;17.80;1.00
9885;DHT22;4981;50.966;4.842;2022-10-16T15:48:47;17.70;1.00
9885;DHT22;4981;50.966;4.842;2022-10-16T15:51:15;17.90;1.00
9885;DHT22;4981;50.966;4.842;2022-10-16T15:53:43;17.70;1.00
9885;DHT22;4981;50.966;4.842;2022-10-16T15:56:12;17.60;1.00
9885;DHT22;4981;50.966;4.842;2022-10-16T15:58:40;17.60;1.00
9885;DHT22;4981;50.966;4.842;2022-10-16T16:01:07;17.60;1.00
9885;DHT22;4981;50.966;4.842;2022-10-16T16:03:36;17.50;1.00
9885;DHT22;4981;50.966;4.842;2022-10-16T16:06:06;17.30;1.00
9885;DHT22;4981;50.966;4.842;2022-10-16T16:08:34;17.30;1.00
9885;DHT22;4981;50.966;4.842;2022-10-16T16:11:05;17.30;1.00
9885;DHT22;4981;50.966;4.842;2022-10-16T16:13:32;17.20;1.00
9885;DHT22;4981;50.966;4.842;2022-10-16T16:15:59;17.20;1.00
9885;DHT22;4981;50.966;4.842;2022-10-16T16:18:26;17.20;1.00
9885;DHT22;4981;50.966;4.842;2022-10-16T16:20:54;17.10;1.00
9885;DHT22;4981;50.966;4.842;2022-10-16T16:23:21;17.20;1.00
9885;DHT22;4981;50.966;4.842;2022-10-16T16:26:09;17.00;1.00
9885;DHT22;4981;50.966;4.842;2022-10-16T16:28:38;16.90;1.00
9885;DHT22;4981;50.966;4.842;2022-10-16T16:31:05;16.90;1.00
9885;DHT22;4981;50.966;4.842;2022-10-16T16:33:33;17.10;1.00
9885;DHT22;4981;50.966;4.842;2022-10-16T16:36:01;16.90;1.00
9885;DHT22;4981;50.966;4.842;2022-10-16T16:38:29;16.80;1.00
9885;DHT22;4981;50.966;4.842;2022-10-16T16:40:56;16.30;1.00